Ship Status Report: callsign 9HA2400

sailwx.info

Track history (hours):
 
Tides and Currents Weather Stations Pressure Air Temp Water Temp Dewpoint Dewpoint Depression Visibility Wind Speed Wind Dir Waves Ship Positions

Callsign 9HA2400 (name unknown)

Last reported at 2017-Oct-16 21:09 UTC. Time now 2017-Oct-19 18:40 UTC.
Position N 49°47' W 003°25'.

Date/timePositionNaut miles runAvg speedWind from/ knotsBaromVisibWave heightAir tempDewpointWater temp
2017-Oct-16 21:09N 49°47' W 003°25'2 6.8
2017-Oct-16 20:54N 49°48' W 003°22'5 6.3
2017-Oct-16 20:11N 49°50' W 003°16'1 6.1
2017-Oct-16 20:00N 49°51' W 003°15'3 5.5
2017-Oct-16 19:30N 49°52' W 003°11'3 4.7
2017-Oct-16 18:50N 49°54' W 003°07'2 4.1
2017-Oct-16 18:25N 49°55' W 003°05'2 3.8
2017-Oct-16 18:01N 49°55' W 003°03'2 3.3
2017-Oct-16 17:31N 49°56' W 003°01'1 2.7
2017-Oct-16 17:00N 49°57' W 002°59'1 2.9
2017-Oct-16 16:30N 49°57' W 002°57'2 3.3
2017-Oct-16 16:00N 49°58' W 002°54'3 4.9
2017-Oct-16 15:29N 49°59' W 002°51'3 4.9
2017-Oct-16 14:52N 49°60' W 002°46'3 5.9
2017-Oct-16 14:27N 50°00' W 002°42'6712.0
2017-Oct-16 08:53N 50°19' W 001°03'512.0
2017-Oct-16 08:28N 50°21' W 000°55'511.3
2017-Oct-16 08:00N 50°22' W 000°47'510.6
2017-Oct-16 07:30N 50°24' W 000°39'810.1
2017-Oct-16 06:44N 50°26' W 000°28'210.0
2017-Oct-16 06:30N 50°27' W 000°24'510.0
2017-Oct-16 06:00N 50°28' W 000°17'510.2
2017-Oct-16 05:30N 50°30' W 000°09'510.5
2017-Oct-16 05:00N 50°31' W 000°01'510.8
2017-Oct-16 04:30N 50°33' E 000°07'611.1
2017-Oct-16 04:00N 50°34' E 000°15'611.7
2017-Oct-16 03:31N 50°36' E 000°24'612.1
2017-Oct-16 03:00N 50°38' E 000°33'612.6
2017-Oct-16 02:30N 50°41' E 000°42'612.9
2017-Oct-16 02:00N 50°45' E 000°50'612.7
2017-Oct-16 01:30N 50°49' E 000°58'612.4
2017-Oct-16 01:00N 50°53' E 001°05'612.1
2017-Oct-16 00:30N 50°56' E 001°13'611.6
2017-Oct-16 00:00N 51°00' E 001°20'510.9
2017-Oct-15 23:30N 51°04' E 001°27'510.3
2017-Oct-15 23:00N 51°07' E 001°33'5 9.4
2017-Oct-15 22:30N 51°10' E 001°39'5 9.5
2017-Oct-15 22:00N 51°13' E 001°44'510.0
2017-Oct-15 21:30N 51°18' E 001°48'510.1
2017-Oct-15 21:00N 51°22' E 001°52'510.6
2017-Oct-15 20:30N 51°26' E 001°58'611.5
2017-Oct-15 20:00N 51°24' E 002°06'611.5
2017-Oct-15 19:30N 51°21' E 002°14'510.7
2017-Oct-15 19:00N 51°21' E 002°23'611.7
2017-Oct-15 18:30N 51°23' E 002°32'612.3
2017-Oct-15 18:01N 51°22' E 002°42'510.7
2017-Oct-15 17:30N 51°22' E 002°50'713.1
2017-Oct-15 17:00N 51°24' E 003°00'612.4
2017-Oct-15 16:30N 51°24' E 003°10'713.2
2017-Oct-15 16:00N 51°25' E 003°21'713.4
2017-Oct-15 15:30N 51°26' E 003°32'612.3
2017-Oct-15 15:00N 51°27' E 003°41'1 1.2
2017-Oct-15 13:54N 51°28' E 003°43'0 0.0
2017-Oct-15 10:06N 51°28' E 003°43'0 0.0
2017-Oct-15 10:00N 51°28' E 003°43'0 0.0
2017-Oct-15 08:48N 51°28' E 003°43'0 0.0
2017-Oct-15 08:30N 51°28' E 003°43'0 0.0
2017-Oct-15 08:00N 51°28' E 003°43'0 0.0
2017-Oct-15 05:42N 51°28' E 003°43'0 0.0
2017-Oct-15 04:00N 51°28' E 003°43'0 0.0
2017-Oct-15 03:30N 51°28' E 003°43'0 0.0
2017-Oct-15 03:00N 51°28' E 003°43'0 0.0
2017-Oct-15 02:30N 51°28' E 003°43'0 0.0
2017-Oct-15 01:58N 51°28' E 003°43'0 0.7
2017-Oct-15 01:30N 51°28' E 003°42'4 7.3
2017-Oct-15 01:00N 51°24' E 003°43'4 6.1
2017-Oct-15 00:20N 51°21' E 003°46'0 0.0
2017-Oct-14 23:59N 51°21' E 003°46'0 0.0
2017-Oct-14 23:26N 51°21' E 003°46'0 0.0
2017-Oct-14 22:50N 51°21' E 003°46'0 0.0
2017-Oct-14 22:26N 51°21' E 003°46'0 0.0
2017-Oct-14 21:53N 51°21' E 003°46'0 0.0
2017-Oct-14 21:14N 51°21' E 003°46'0 0.0
2017-Oct-14 20:50N 51°21' E 003°46'0 0.0
2017-Oct-14 20:29N 51°21' E 003°46'0 0.0
2017-Oct-14 19:56N 51°21' E 003°46'0 0.0
2017-Oct-14 19:26N 51°21' E 003°46'0 0.0
2017-Oct-14 18:56N 51°21' E 003°46'0 0.0
2017-Oct-14 18:26N 51°21' E 003°46'0 0.0
2017-Oct-14 17:59N 51°21' E 003°46'0 0.0
2017-Oct-14 17:26N 51°21' E 003°46'0 0.0
2017-Oct-14 16:59N 51°21' E 003°46'0 0.0
2017-Oct-14 16:20N 51°21' E 003°46'0 0.0
2017-Oct-14 15:59N 51°21' E 003°46'0 0.0
2017-Oct-14 15:23N 51°21' E 003°46'0 0.0
2017-Oct-14 14:56N 51°21' E 003°46'0 0.0
2017-Oct-14 14:26N 51°21' E 003°46'0 0.0
2017-Oct-14 13:56N 51°21' E 003°46'0 0.0
2017-Oct-14 13:26N 51°21' E 003°46'0 0.0
2017-Oct-14 12:59N 51°21' E 003°46'0 0.0
2017-Oct-14 12:26N 51°21' E 003°46'0 0.0
2017-Oct-14 11:59N 51°21' E 003°46'0 0.0
2017-Oct-14 11:26N 51°21' E 003°46'0 0.0
2017-Oct-14 10:50N 51°21' E 003°46'0 0.0
2017-Oct-14 10:23N 51°21' E 003°46'0 0.0
2017-Oct-14 09:50N 51°21' E 003°46'0 0.0
2017-Oct-14 09:29N 51°21' E 003°46'0 0.0
2017-Oct-14 08:47N 51°21' E 003°46'0 0.0
2017-Oct-14 08:26N 51°21' E 003°46'0 0.0
2017-Oct-14 07:56N 51°21' E 003°46'0 0.0
2017-Oct-14 07:26N 51°21' E 003°46'0 0.0
2017-Oct-14 06:56N 51°21' E 003°46'0 0.0
2017-Oct-14 06:26N 51°21' E 003°46'0 0.0
2017-Oct-14 05:50N 51°21' E 003°46'0 0.0
2017-Oct-14 05:26N 51°21' E 003°46'0 0.0
2017-Oct-14 04:59N 51°21' E 003°46'0 0.0
2017-Oct-14 04:26N 51°21' E 003°46'0 0.0
2017-Oct-14 03:56N 51°21' E 003°46'0 0.0
2017-Oct-14 03:26N 51°21' E 003°46'0 0.0
2017-Oct-14 02:50N 51°21' E 003°46'0 0.0
2017-Oct-14 02:26N 51°21' E 003°46'0 0.0
2017-Oct-14 01:38N 51°21' E 003°46'0 0.0
2017-Oct-14 01:26N 51°21' E 003°46'0 0.0
2017-Oct-14 00:47N 51°21' E 003°46'0 0.0
2017-Oct-14 00:26N 51°21' E 003°46'0 0.0
2017-Oct-13 23:53N 51°21' E 003°46'0 0.0
2017-Oct-13 23:20N 51°21' E 003°46'0 0.0
2017-Oct-13 22:56N 51°21' E 003°46'0 0.0
2017-Oct-13 22:20N 51°21' E 003°46'0 0.0
2017-Oct-13 21:59N 51°21' E 003°46'0 0.0
2017-Oct-13 21:26N 51°21' E 003°46'0 0.0
2017-Oct-13 20:56N 51°21' E 003°46'0 0.0
2017-Oct-13 20:11N 51°21' E 003°46'0 0.0
2017-Oct-13 19:56N 51°21' E 003°46'0 0.0
2017-Oct-13 19:26N 51°21' E 003°46'0 0.0
2017-Oct-13 18:59N 51°21' E 003°46'0 0.0
2017-Oct-13 18:26N 51°21' E 003°46'0 0.0
2017-Oct-13 17:32N 51°21' E 003°46'0 0.0
2017-Oct-13 17:20N 51°21' E 003°46'0 0.0
2017-Oct-13 16:50N 51°21' E 003°46'0 0.0
2017-Oct-13 16:29N 51°21' E 003°46'0 0.0
2017-Oct-13 15:59N 51°21' E 003°46'0 0.0
2017-Oct-13 15:23N 51°21' E 003°46'0 0.0
2017-Oct-13 14:59N 51°21' E 003°46'0 0.0
2017-Oct-13 14:20N 51°21' E 003°46'0 0.0
2017-Oct-13 13:56N 51°21' E 003°46'0 0.0
2017-Oct-13 13:30N 51°21' E 003°46'1 2.7
2017-Oct-13 13:00N 51°22' E 003°45'5 9.3
2017-Oct-13 12:30N 51°26' E 003°41'5 9.7
2017-Oct-13 12:01N 51°25' E 003°33'5 9.1
2017-Oct-13 11:30N 51°25' E 003°26'5 9.9
2017-Oct-13 11:01N 51°24' E 003°18'5 9.1
2017-Oct-13 10:30N 51°24' E 003°11'510.2
2017-Oct-13 10:01N 51°24' E 003°03'612.4
2017-Oct-13 09:30N 51°22' E 002°54'612.1
2017-Oct-13 09:00N 51°22' E 002°44'5 9.7
2017-Oct-13 08:29N 51°20' E 002°36'0 0.2
2017-Oct-13 07:59N 51°20' E 002°36'0 0.0
2017-Oct-13 07:23N 51°20' E 002°36'0 0.0
2017-Oct-13 06:50N 51°20' E 002°36'0 0.0
2017-Oct-13 06:29N 51°20' E 002°36'0 0.0
2017-Oct-13 05:59N 51°20' E 002°36'0 0.0
2017-Oct-13 04:02N 51°20' E 002°36'0 0.0
2017-Oct-13 03:50N 51°20' E 002°36'0 0.0
2017-Oct-13 03:26N 51°20' E 002°36'0 0.1
2017-Oct-13 02:59N 51°20' E 002°36'0 0.1
2017-Oct-13 02:29N 51°20' E 002°36'0 0.0
2017-Oct-13 01:59N 51°20' E 002°36'0 0.0
2017-Oct-13 01:29N 51°20' E 002°36'0 0.0
2017-Oct-13 00:59N 51°20' E 002°36'0 0.0
2017-Oct-13 00:23N 51°20' E 002°36'0 0.0
2017-Oct-12 23:44N 51°20' E 002°36'0 0.1
2017-Oct-12 23:23N 51°20' E 002°36'0 0.2
2017-Oct-12 22:59N 51°20' E 002°36'0 0.1
2017-Oct-12 22:23N 51°20' E 002°36'0 0.1
2017-Oct-12 21:50N 51°20' E 002°36'0 0.0
2017-Oct-12 21:29N 51°20' E 002°36'0 0.0
2017-Oct-12 20:59N 51°20' E 002°36'0 0.0
2017-Oct-12 20:29N 51°20' E 002°36'0 0.0
2017-Oct-12 19:59N 51°20' E 002°36'0 0.0
2017-Oct-12 19:29N 51°20' E 002°36'0 0.0
2017-Oct-12 18:50N 51°20' E 002°36'0 0.0
2017-Oct-12 18:29N 51°20' E 002°36'0 0.0
2017-Oct-12 17:59N 51°20' E 002°36'0 0.0
2017-Oct-12 17:29N 51°20' E 002°36'0 0.0
2017-Oct-12 16:59N 51°20' E 002°36'0 0.0
2017-Oct-12 16:29N 51°20' E 002°36'0 0.0
2017-Oct-12 15:59N 51°20' E 002°36'0 0.0
2017-Oct-12 15:29N 51°20' E 002°36'0 0.0
2017-Oct-12 14:59N 51°20' E 002°36'0 0.1
2017-Oct-12 14:29N 51°20' E 002°36'0 0.1
2017-Oct-12 13:59N 51°20' E 002°36'0 0.1
2017-Oct-12 13:20N 51°20' E 002°36'0 0.1
2017-Oct-12 12:59N 51°20' E 002°36'0 0.0
2017-Oct-12 12:29N 51°20' E 002°36'0 0.0
2017-Oct-12 11:53N 51°20' E 002°36'0 0.0
2017-Oct-12 11:29N 51°20' E 002°36'0 0.0
2017-Oct-12 10:59N 51°20' E 002°36'0 0.2
2017-Oct-12 10:29N 51°20' E 002°36'0 0.2
2017-Oct-12 09:59N 51°20' E 002°36'0 0.1
2017-Oct-12 09:29N 51°20' E 002°36'0 0.0
2017-Oct-12 08:59N 51°20' E 002°36'0 0.0
2017-Oct-12 08:29N 51°20' E 002°36'0 0.0
2017-Oct-12 07:56N 51°20' E 002°36'0 0.0
2017-Oct-12 07:29N 51°20' E 002°36'0 0.0
2017-Oct-12 06:59N 51°20' E 002°36'0 0.0
2017-Oct-12 06:29N 51°20' E 002°36'0 0.0
2017-Oct-12 05:59N 51°20' E 002°36'0 0.0
2017-Oct-12 05:17N 51°20' E 002°36'0 0.0
2017-Oct-12 04:59N 51°20' E 002°36'0 0.0
2017-Oct-12 04:29N 51°20' E 002°36'0 0.0
2017-Oct-12 03:56N 51°20' E 002°36'0 0.0
2017-Oct-12 03:26N 51°20' E 002°36'0 0.1
2017-Oct-12 02:59N 51°20' E 002°36'0 0.0
2017-Oct-12 02:29N 51°20' E 002°36'0 0.0
2017-Oct-12 01:59N 51°20' E 002°36'0 0.1
2017-Oct-12 01:26N 51°20' E 002°36'0 0.1
2017-Oct-12 00:53N 51°20' E 002°36'0 0.0
2017-Oct-12 00:26N 51°20' E 002°36'0 0.1
2017-Oct-11 23:59N 51°20' E 002°36'0 0.1
2017-Oct-11 23:29N 51°20' E 002°36'0 0.2
2017-Oct-11 22:59N 51°20' E 002°36'0 0.0
2017-Oct-11 22:26N 51°20' E 002°36'0 0.0
2017-Oct-11 21:59N 51°20' E 002°36'0 0.0
2017-Oct-11 21:29N 51°20' E 002°36'0 0.0
2017-Oct-11 20:41N 51°20' E 002°36'0 0.0
2017-Oct-11 20:14N 51°20' E 002°36'0 0.0
2017-Oct-11 19:59N 51°20' E 002°36'0 0.0
2017-Oct-11 19:29N 51°20' E 002°36'0 0.0
2017-Oct-11 18:59N 51°20' E 002°36'0 0.1
2017-Oct-11 18:29N 51°20' E 002°36'0 0.1
2017-Oct-11 18:00N 51°20' E 002°36'5 8.6
2017-Oct-11 17:27N 51°22' E 002°29'613.6
2017-Oct-11 17:00N 51°19' E 002°20'  
2017-Oct-08 19:59N 41°37' W 009°56'1911.3
2017-Oct-08 18:15N 41°18' W 009°57'311.2
2017-Oct-08 18:00N 41°15' W 009°57'611.4
2017-Oct-08 17:29N 41°09' W 009°57'611.8
2017-Oct-08 16:59N 41°03' W 009°57'612.5
2017-Oct-08 16:30N 40°57' W 009°57'2011.1
2017-Oct-08 14:41N 40°37' W 009°57'211.5
2017-Oct-08 14:29N 40°35' W 009°57'611.7
2017-Oct-08 13:59N 40°29' W 009°57'611.8
2017-Oct-08 13:30N 40°23' W 009°57'612.1
2017-Oct-08 13:00N 40°17' W 009°57'612.2
2017-Oct-08 12:30N 40°11' W 009°57'612.0
2017-Oct-08 12:00N 40°05' W 009°57'611.7
2017-Oct-08 11:30N 39°59' W 009°57'611.7
2017-Oct-08 11:00N 39°53' W 009°57'611.4
2017-Oct-08 10:30N 39°48' W 009°57'611.6
2017-Oct-08 10:00N 39°42' W 009°57'611.7
2017-Oct-08 09:29N 39°36' W 009°57'611.8
2017-Oct-08 09:00N 39°30' W 009°57'611.6
2017-Oct-08 08:30N 39°25' W 009°57'611.5
2017-Oct-08 08:00N 39°19' W 009°58'611.2
2017-Oct-08 07:30N 39°13' W 009°57'611.7
2017-Oct-08 07:00N 39°07' W 009°57'611.9
2017-Oct-08 06:30N 39°01' W 009°57'611.3
2017-Oct-08 06:00N 38°56' W 009°57'510.8
2017-Oct-08 05:30N 38°50' W 009°57'611.7
2017-Oct-08 05:00N 38°44' W 009°57'611.9
2017-Oct-08 04:30N 38°39' W 009°55'611.0
2017-Oct-08 04:00N 38°34' W 009°52'611.7
2017-Oct-08 03:30N 38°30' W 009°46'611.5
2017-Oct-08 03:00N 38°27' W 009°40'611.3
2017-Oct-08 02:30N 38°23' W 009°35'611.9
2017-Oct-08 02:00N 38°19' W 009°29'611.9
2017-Oct-08 01:30N 38°15' W 009°23'612.0
2017-Oct-08 01:00N 38°11' W 009°18'612.2
2017-Oct-08 00:30N 38°07' W 009°11'611.7
2017-Oct-08 00:00N 38°04' W 009°06'612.0
2017-Oct-07 23:30N 37°60' W 009°00'611.8
2017-Oct-07 23:00N 37°56' W 008°54'1 2.7
2017-Oct-07 22:27N 37°57' W 008°53'0 0.0
2017-Oct-07 22:00N 37°57' W 008°53'0 0.0
2017-Oct-07 21:30N 37°57' W 008°53'0 0.0
2017-Oct-07 21:00N 37°57' W 008°53'0 0.0
2017-Oct-07 20:30N 37°57' W 008°53'0 0.0
2017-Oct-07 20:00N 37°57' W 008°53'0 0.0
2017-Oct-07 19:30N 37°57' W 008°53'0 0.0
2017-Oct-07 18:57N 37°57' W 008°53'0 0.0
2017-Oct-07 18:30N 37°57' W 008°53'0 0.0
2017-Oct-07 18:00N 37°57' W 008°53'0 0.0
2017-Oct-07 17:27N 37°57' W 008°53'0 0.0
2017-Oct-07 17:00N 37°57' W 008°53'0 0.0
2017-Oct-07 16:30N 37°57' W 008°53'0 0.0
2017-Oct-07 16:00N 37°57' W 008°53'0 0.0
2017-Oct-07 15:27N 37°57' W 008°53'0 0.0
2017-Oct-07 15:00N 37°57' W 008°53'0 0.0
2017-Oct-07 14:30N 37°57' W 008°53'0 0.0
2017-Oct-07 14:00N 37°57' W 008°53'0 0.0
2017-Oct-07 13:30N 37°57' W 008°53'0 0.0
2017-Oct-07 13:00N 37°57' W 008°53'0 0.0
2017-Oct-07 12:30N 37°57' W 008°53'0 0.0
2017-Oct-07 12:00N 37°57' W 008°53'0 0.0
2017-Oct-07 11:30N 37°57' W 008°53'0 0.0
2017-Oct-07 11:00N 37°57' W 008°53'0 0.0
2017-Oct-07 10:30N 37°57' W 008°53'0 0.0
2017-Oct-07 10:00N 37°57' W 008°53'0 0.0
2017-Oct-07 09:30N 37°57' W 008°53'0 0.0
2017-Oct-07 09:00N 37°57' W 008°53'0 0.0
2017-Oct-07 08:30N 37°57' W 008°53'0 0.0
2017-Oct-07 08:00N 37°57' W 008°53'0 0.0
2017-Oct-07 07:30N 37°57' W 008°53'0 0.0
2017-Oct-07 07:00N 37°57' W 008°53'0 0.0
2017-Oct-07 06:30N 37°57' W 008°53'0 0.0
2017-Oct-07 06:00N 37°57' W 008°53'0 0.0
2017-Oct-07 05:30N 37°57' W 008°53'0 0.0
2017-Oct-07 05:00N 37°57' W 008°53'0 0.0
2017-Oct-07 04:30N 37°57' W 008°53'0 0.0
2017-Oct-07 04:00N 37°57' W 008°53'0 0.0
2017-Oct-07 03:30N 37°57' W 008°53'0 0.0
2017-Oct-07 03:00N 37°57' W 008°53'0 0.0
2017-Oct-07 02:30N 37°57' W 008°53'0 0.0
2017-Oct-07 02:00N 37°57' W 008°53'0 0.0
2017-Oct-07 01:30N 37°57' W 008°53'0 0.0
2017-Oct-07 01:00N 37°57' W 008°53'0 0.0
2017-Oct-07 00:30N 37°57' W 008°53'0 0.0
2017-Oct-07 00:00N 37°57' W 008°53'0 0.0
2017-Oct-06 23:30N 37°57' W 008°53'0 0.0
2017-Oct-06 23:00N 37°57' W 008°53'0 0.0
2017-Oct-06 22:30N 37°57' W 008°53'0 0.0
2017-Oct-06 22:00N 37°57' W 008°53'0 0.0
2017-Oct-06 21:30N 37°57' W 008°53'  
Track history (hours):
 
Tides and Currents Weather Stations Pressure Air Temp Water Temp Dewpoint Dewpoint Depression Visibility Wind Speed Wind Dir Waves Ship Positions

Callsign 9HA2400 (name unknown)

Last reported at 2017-Oct-16 21:09 UTC. Time now 2017-Oct-19 18:41 UTC.
Position N 49°47' W 003°25'.

Date/timePositionNaut miles runAvg speedWind from/ knotsBaromVisibWave heightAir tempDewpointWater temp
2017-Oct-16 21:09N 49°47' W 003°25'2 6.8
2017-Oct-16 20:54N 49°48' W 003°22'5 6.3
2017-Oct-16 20:11N 49°50' W 003°16'1 6.1
2017-Oct-16 20:00N 49°51' W 003°15'3 5.5
2017-Oct-16 19:30N 49°52' W 003°11'3 4.7
2017-Oct-16 18:50N 49°54' W 003°07'2 4.1
2017-Oct-16 18:25N 49°55' W 003°05'2 3.8
2017-Oct-16 18:01N 49°55' W 003°03'2 3.3
2017-Oct-16 17:31N 49°56' W 003°01'1 2.7
2017-Oct-16 17:00N 49°57' W 002°59'1 2.9
2017-Oct-16 16:30N 49°57' W 002°57'2 3.3
2017-Oct-16 16:00N 49°58' W 002°54'3 4.9
2017-Oct-16 15:29N 49°59' W 002°51'3 4.9
2017-Oct-16 14:52N 49°60' W 002°46'3 5.9
2017-Oct-16 14:27N 50°00' W 002°42'6712.0
2017-Oct-16 08:53N 50°19' W 001°03'512.0
2017-Oct-16 08:28N 50°21' W 000°55'511.3
2017-Oct-16 08:00N 50°22' W 000°47'510.6
2017-Oct-16 07:30N 50°24' W 000°39'810.1
2017-Oct-16 06:44N 50°26' W 000°28'210.0
2017-Oct-16 06:30N 50°27' W 000°24'510.0
2017-Oct-16 06:00N 50°28' W 000°17'510.2
2017-Oct-16 05:30N 50°30' W 000°09'510.5
2017-Oct-16 05:00N 50°31' W 000°01'510.8
2017-Oct-16 04:30N 50°33' E 000°07'611.1
2017-Oct-16 04:00N 50°34' E 000°15'611.7
2017-Oct-16 03:31N 50°36' E 000°24'612.1
2017-Oct-16 03:00N 50°38' E 000°33'612.6
2017-Oct-16 02:30N 50°41' E 000°42'612.9
2017-Oct-16 02:00N 50°45' E 000°50'612.7
2017-Oct-16 01:30N 50°49' E 000°58'612.4
2017-Oct-16 01:00N 50°53' E 001°05'612.1
2017-Oct-16 00:30N 50°56' E 001°13'611.6
2017-Oct-16 00:00N 51°00' E 001°20'510.9
2017-Oct-15 23:30N 51°04' E 001°27'510.3
2017-Oct-15 23:00N 51°07' E 001°33'5 9.4
2017-Oct-15 22:30N 51°10' E 001°39'5 9.5
2017-Oct-15 22:00N 51°13' E 001°44'510.0
2017-Oct-15 21:30N 51°18' E 001°48'510.1
2017-Oct-15 21:00N 51°22' E 001°52'510.6
2017-Oct-15 20:30N 51°26' E 001°58'611.5
2017-Oct-15 20:00N 51°24' E 002°06'611.5
2017-Oct-15 19:30N 51°21' E 002°14'510.7
2017-Oct-15 19:00N 51°21' E 002°23'611.7
2017-Oct-15 18:30N 51°23' E 002°32'612.3
2017-Oct-15 18:01N 51°22' E 002°42'510.7
2017-Oct-15 17:30N 51°22' E 002°50'713.1
2017-Oct-15 17:00N 51°24' E 003°00'612.4
2017-Oct-15 16:30N 51°24' E 003°10'713.2
2017-Oct-15 16:00N 51°25' E 003°21'713.4
2017-Oct-15 15:30N 51°26' E 003°32'612.3
2017-Oct-15 15:00N 51°27' E 003°41'1 1.2
2017-Oct-15 13:54N 51°28' E 003°43'0 0.0
2017-Oct-15 10:06N 51°28' E 003°43'0 0.0
2017-Oct-15 10:00N 51°28' E 003°43'0 0.0
2017-Oct-15 08:48N 51°28' E 003°43'0 0.0
2017-Oct-15 08:30N 51°28' E 003°43'0 0.0
2017-Oct-15 08:00N 51°28' E 003°43'0 0.0
2017-Oct-15 05:42N 51°28' E 003°43'0 0.0
2017-Oct-15 04:00N 51°28' E 003°43'0 0.0
2017-Oct-15 03:30N 51°28' E 003°43'0 0.0
2017-Oct-15 03:00N 51°28' E 003°43'0 0.0
2017-Oct-15 02:30N 51°28' E 003°43'0 0.0
2017-Oct-15 01:58N 51°28' E 003°43'0 0.7
2017-Oct-15 01:30N 51°28' E 003°42'4 7.3
2017-Oct-15 01:00N 51°24' E 003°43'4 6.1
2017-Oct-15 00:20N 51°21' E 003°46'0 0.0
2017-Oct-14 23:59N 51°21' E 003°46'0 0.0
2017-Oct-14 23:26N 51°21' E 003°46'0 0.0
2017-Oct-14 22:50N 51°21' E 003°46'0 0.0
2017-Oct-14 22:26N 51°21' E 003°46'0 0.0
2017-Oct-14 21:53N 51°21' E 003°46'0 0.0
2017-Oct-14 21:14N 51°21' E 003°46'0 0.0
2017-Oct-14 20:50N 51°21' E 003°46'0 0.0
2017-Oct-14 20:29N 51°21' E 003°46'0 0.0
2017-Oct-14 19:56N 51°21' E 003°46'0 0.0
2017-Oct-14 19:26N 51°21' E 003°46'0 0.0
2017-Oct-14 18:56N 51°21' E 003°46'0 0.0
2017-Oct-14 18:26N 51°21' E 003°46'0 0.0
2017-Oct-14 17:59N 51°21' E 003°46'0 0.0
2017-Oct-14 17:26N 51°21' E 003°46'0 0.0
2017-Oct-14 16:59N 51°21' E 003°46'0 0.0
2017-Oct-14 16:20N 51°21' E 003°46'0 0.0
2017-Oct-14 15:59N 51°21' E 003°46'0 0.0
2017-Oct-14 15:23N 51°21' E 003°46'0 0.0
2017-Oct-14 14:56N 51°21' E 003°46'0 0.0
2017-Oct-14 14:26N 51°21' E 003°46'0 0.0
2017-Oct-14 13:56N 51°21' E 003°46'0 0.0
2017-Oct-14 13:26N 51°21' E 003°46'0 0.0
2017-Oct-14 12:59N 51°21' E 003°46'0 0.0
2017-Oct-14 12:26N 51°21' E 003°46'0 0.0
2017-Oct-14 11:59N 51°21' E 003°46'0 0.0
2017-Oct-14 11:26N 51°21' E 003°46'0 0.0
2017-Oct-14 10:50N 51°21' E 003°46'0 0.0
2017-Oct-14 10:23N 51°21' E 003°46'0 0.0
2017-Oct-14 09:50N 51°21' E 003°46'0 0.0
2017-Oct-14 09:29N 51°21' E 003°46'0 0.0
2017-Oct-14 08:47N 51°21' E 003°46'0 0.0
2017-Oct-14 08:26N 51°21' E 003°46'0 0.0
2017-Oct-14 07:56N 51°21' E 003°46'0 0.0
2017-Oct-14 07:26N 51°21' E 003°46'0 0.0
2017-Oct-14 06:56N 51°21' E 003°46'0 0.0
2017-Oct-14 06:26N 51°21' E 003°46'0 0.0
2017-Oct-14 05:50N 51°21' E 003°46'0 0.0
2017-Oct-14 05:26N 51°21' E 003°46'0 0.0
2017-Oct-14 04:59N 51°21' E 003°46'0 0.0
2017-Oct-14 04:26N 51°21' E 003°46'0 0.0
2017-Oct-14 03:56N 51°21' E 003°46'0 0.0
2017-Oct-14 03:26N 51°21' E 003°46'0 0.0
2017-Oct-14 02:50N 51°21' E 003°46'0 0.0
2017-Oct-14 02:26N 51°21' E 003°46'0 0.0
2017-Oct-14 01:38N 51°21' E 003°46'0 0.0
2017-Oct-14 01:26N 51°21' E 003°46'0 0.0
2017-Oct-14 00:47N 51°21' E 003°46'0 0.0
2017-Oct-14 00:26N 51°21' E 003°46'0 0.0
2017-Oct-13 23:53N 51°21' E 003°46'0 0.0
2017-Oct-13 23:20N 51°21' E 003°46'0 0.0
2017-Oct-13 22:56N 51°21' E 003°46'0 0.0
2017-Oct-13 22:20N 51°21' E 003°46'0 0.0
2017-Oct-13 21:59N 51°21' E 003°46'0 0.0
2017-Oct-13 21:26N 51°21' E 003°46'0 0.0
2017-Oct-13 20:56N 51°21' E 003°46'0 0.0
2017-Oct-13 20:11N 51°21' E 003°46'0 0.0
2017-Oct-13 19:56N 51°21' E 003°46'0 0.0
2017-Oct-13 19:26N 51°21' E 003°46'0 0.0
2017-Oct-13 18:59N 51°21' E 003°46'0 0.0
2017-Oct-13 18:26N 51°21' E 003°46'0 0.0
2017-Oct-13 17:32N 51°21' E 003°46'0 0.0
2017-Oct-13 17:20N 51°21' E 003°46'0 0.0
2017-Oct-13 16:50N 51°21' E 003°46'0 0.0
2017-Oct-13 16:29N 51°21' E 003°46'0 0.0
2017-Oct-13 15:59N 51°21' E 003°46'0 0.0
2017-Oct-13 15:23N 51°21' E 003°46'0 0.0
2017-Oct-13 14:59N 51°21' E 003°46'0 0.0
2017-Oct-13 14:20N 51°21' E 003°46'0 0.0
2017-Oct-13 13:56N 51°21' E 003°46'0 0.0
2017-Oct-13 13:30N 51°21' E 003°46'1 2.7
2017-Oct-13 13:00N 51°22' E 003°45'5 9.3
2017-Oct-13 12:30N 51°26' E 003°41'5 9.7
2017-Oct-13 12:01N 51°25' E 003°33'5 9.1
2017-Oct-13 11:30N 51°25' E 003°26'5 9.9
2017-Oct-13 11:01N 51°24' E 003°18'5 9.1
2017-Oct-13 10:30N 51°24' E 003°11'510.2
2017-Oct-13 10:01N 51°24' E 003°03'612.4
2017-Oct-13 09:30N 51°22' E 002°54'612.1
2017-Oct-13 09:00N 51°22' E 002°44'5 9.7
2017-Oct-13 08:29N 51°20' E 002°36'0 0.2
2017-Oct-13 07:59N 51°20' E 002°36'0 0.0
2017-Oct-13 07:23N 51°20' E 002°36'0 0.0
2017-Oct-13 06:50N 51°20' E 002°36'0 0.0
2017-Oct-13 06:29N 51°20' E 002°36'0 0.0
2017-Oct-13 05:59N 51°20' E 002°36'0 0.0
2017-Oct-13 04:02N 51°20' E 002°36'0 0.0
2017-Oct-13 03:50N 51°20' E 002°36'0 0.0
2017-Oct-13 03:26N 51°20' E 002°36'0 0.1
2017-Oct-13 02:59N 51°20' E 002°36'0 0.1
2017-Oct-13 02:29N 51°20' E 002°36'0 0.0
2017-Oct-13 01:59N 51°20' E 002°36'0 0.0
2017-Oct-13 01:29N 51°20' E 002°36'0 0.0
2017-Oct-13 00:59N 51°20' E 002°36'0 0.0
2017-Oct-13 00:23N 51°20' E 002°36'0 0.0
2017-Oct-12 23:44N 51°20' E 002°36'0 0.1
2017-Oct-12 23:23N 51°20' E 002°36'0 0.2
2017-Oct-12 22:59N 51°20' E 002°36'0 0.1
2017-Oct-12 22:23N 51°20' E 002°36'0 0.1
2017-Oct-12 21:50N 51°20' E 002°36'0 0.0
2017-Oct-12 21:29N 51°20' E 002°36'0 0.0
2017-Oct-12 20:59N 51°20' E 002°36'0 0.0
2017-Oct-12 20:29N 51°20' E 002°36'0 0.0
2017-Oct-12 19:59N 51°20' E 002°36'0 0.0
2017-Oct-12 19:29N 51°20' E 002°36'0 0.0
2017-Oct-12 18:50N 51°20' E 002°36'0 0.0
2017-Oct-12 18:29N 51°20' E 002°36'0 0.0
2017-Oct-12 17:59N 51°20' E 002°36'0 0.0
2017-Oct-12 17:29N 51°20' E 002°36'0 0.0
2017-Oct-12 16:59N 51°20' E 002°36'0 0.0
2017-Oct-12 16:29N 51°20' E 002°36'0 0.0
2017-Oct-12 15:59N 51°20' E 002°36'0 0.0
2017-Oct-12 15:29N 51°20' E 002°36'0 0.0
2017-Oct-12 14:59N 51°20' E 002°36'0 0.1
2017-Oct-12 14:29N 51°20' E 002°36'0 0.1
2017-Oct-12 13:59N 51°20' E 002°36'0 0.1
2017-Oct-12 13:20N 51°20' E 002°36'0 0.1
2017-Oct-12 12:59N 51°20' E 002°36'0 0.0
2017-Oct-12 12:29N 51°20' E 002°36'0 0.0
2017-Oct-12 11:53N 51°20' E 002°36'0 0.0
2017-Oct-12 11:29N 51°20' E 002°36'0 0.0
2017-Oct-12 10:59N 51°20' E 002°36'0 0.2
2017-Oct-12 10:29N 51°20' E 002°36'0 0.2
2017-Oct-12 09:59N 51°20' E 002°36'0 0.1
2017-Oct-12 09:29N 51°20' E 002°36'0 0.0
2017-Oct-12 08:59N 51°20' E 002°36'0 0.0
2017-Oct-12 08:29N 51°20' E 002°36'0 0.0
2017-Oct-12 07:56N 51°20' E 002°36'0 0.0
2017-Oct-12 07:29N 51°20' E 002°36'0 0.0
2017-Oct-12 06:59N 51°20' E 002°36'0 0.0
2017-Oct-12 06:29N 51°20' E 002°36'0 0.0
2017-Oct-12 05:59N 51°20' E 002°36'0 0.0
2017-Oct-12 05:17N 51°20' E 002°36'0 0.0
2017-Oct-12 04:59N 51°20' E 002°36'0 0.0
2017-Oct-12 04:29N 51°20' E 002°36'0 0.0
2017-Oct-12 03:56N 51°20' E 002°36'0 0.0
2017-Oct-12 03:26N 51°20' E 002°36'0 0.1
2017-Oct-12 02:59N 51°20' E 002°36'0 0.0
2017-Oct-12 02:29N 51°20' E 002°36'0 0.0
2017-Oct-12 01:59N 51°20' E 002°36'0 0.1
2017-Oct-12 01:26N 51°20' E 002°36'0 0.1
2017-Oct-12 00:53N 51°20' E 002°36'0 0.0
2017-Oct-12 00:26N 51°20' E 002°36'0 0.1
2017-Oct-11 23:59N 51°20' E 002°36'0 0.1
2017-Oct-11 23:29N 51°20' E 002°36'0 0.2
2017-Oct-11 22:59N 51°20' E 002°36'0 0.0
2017-Oct-11 22:26N 51°20' E 002°36'0 0.0
2017-Oct-11 21:59N 51°20' E 002°36'0 0.0
2017-Oct-11 21:29N 51°20' E 002°36'0 0.0
2017-Oct-11 20:41N 51°20' E 002°36'0 0.0
2017-Oct-11 20:14N 51°20' E 002°36'0 0.0
2017-Oct-11 19:59N 51°20' E 002°36'0 0.0
2017-Oct-11 19:29N 51°20' E 002°36'0 0.0
2017-Oct-11 18:59N 51°20' E 002°36'0 0.1
2017-Oct-11 18:29N 51°20' E 002°36'0 0.1
2017-Oct-11 18:00N 51°20' E 002°36'5 8.6
2017-Oct-11 17:27N 51°22' E 002°29'613.6
2017-Oct-11 17:00N 51°19' E 002°20'  
2017-Oct-08 19:59N 41°37' W 009°56'1911.3
2017-Oct-08 18:15N 41°18' W 009°57'311.2
2017-Oct-08 18:00N 41°15' W 009°57'611.4
2017-Oct-08 17:29N 41°09' W 009°57'611.8
2017-Oct-08 16:59N 41°03' W 009°57'612.5
2017-Oct-08 16:30N 40°57' W 009°57'2011.1
2017-Oct-08 14:41N 40°37' W 009°57'211.5
2017-Oct-08 14:29N 40°35' W 009°57'611.7
2017-Oct-08 13:59N 40°29' W 009°57'611.8
2017-Oct-08 13:30N 40°23' W 009°57'612.1
2017-Oct-08 13:00N 40°17' W 009°57'612.2
2017-Oct-08 12:30N 40°11' W 009°57'612.0
2017-Oct-08 12:00N 40°05' W 009°57'611.7
2017-Oct-08 11:30N 39°59' W 009°57'611.7
2017-Oct-08 11:00N 39°53' W 009°57'611.4
2017-Oct-08 10:30N 39°48' W 009°57'611.6
2017-Oct-08 10:00N 39°42' W 009°57'611.7
2017-Oct-08 09:29N 39°36' W 009°57'611.8
2017-Oct-08 09:00N 39°30' W 009°57'611.6
2017-Oct-08 08:30N 39°25' W 009°57'611.5
2017-Oct-08 08:00N 39°19' W 009°58'611.2
2017-Oct-08 07:30N 39°13' W 009°57'611.7
2017-Oct-08 07:00N 39°07' W 009°57'611.9
2017-Oct-08 06:30N 39°01' W 009°57'611.3
2017-Oct-08 06:00N 38°56' W 009°57'510.8
2017-Oct-08 05:30N 38°50' W 009°57'611.7
2017-Oct-08 05:00N 38°44' W 009°57'611.9
2017-Oct-08 04:30N 38°39' W 009°55'611.0
2017-Oct-08 04:00N 38°34' W 009°52'611.7
2017-Oct-08 03:30N 38°30' W 009°46'611.5
2017-Oct-08 03:00N 38°27' W 009°40'611.3
2017-Oct-08 02:30N 38°23' W 009°35'611.9
2017-Oct-08 02:00N 38°19' W 009°29'611.9
2017-Oct-08 01:30N 38°15' W 009°23'612.0
2017-Oct-08 01:00N 38°11' W 009°18'612.2
2017-Oct-08 00:30N 38°07' W 009°11'611.7
2017-Oct-08 00:00N 38°04' W 009°06'612.0
2017-Oct-07 23:30N 37°60' W 009°00'611.8
2017-Oct-07 23:00N 37°56' W 008°54'1 2.7
2017-Oct-07 22:27N 37°57' W 008°53'0 0.0
2017-Oct-07 22:00N 37°57' W 008°53'0 0.0
2017-Oct-07 21:30N 37°57' W 008°53'0 0.0
2017-Oct-07 21:00N 37°57' W 008°53'0 0.0
2017-Oct-07 20:30N 37°57' W 008°53'0 0.0
2017-Oct-07 20:00N 37°57' W 008°53'0 0.0
2017-Oct-07 19:30N 37°57' W 008°53'0 0.0
2017-Oct-07 18:57N 37°57' W 008°53'0 0.0
2017-Oct-07 18:30N 37°57' W 008°53'0 0.0
2017-Oct-07 18:00N 37°57' W 008°53'0 0.0
2017-Oct-07 17:27N 37°57' W 008°53'0 0.0
2017-Oct-07 17:00N 37°57' W 008°53'0 0.0
2017-Oct-07 16:30N 37°57' W 008°53'0 0.0
2017-Oct-07 16:00N 37°57' W 008°53'0 0.0
2017-Oct-07 15:27N 37°57' W 008°53'0 0.0
2017-Oct-07 15:00N 37°57' W 008°53'0 0.0
2017-Oct-07 14:30N 37°57' W 008°53'0 0.0
2017-Oct-07 14:00N 37°57' W 008°53'0 0.0
2017-Oct-07 13:30N 37°57' W 008°53'0 0.0
2017-Oct-07 13:00N 37°57' W 008°53'0 0.0
2017-Oct-07 12:30N 37°57' W 008°53'0 0.0
2017-Oct-07 12:00N 37°57' W 008°53'0 0.0
2017-Oct-07 11:30N 37°57' W 008°53'0 0.0
2017-Oct-07 11:00N 37°57' W 008°53'0 0.0
2017-Oct-07 10:30N 37°57' W 008°53'0 0.0
2017-Oct-07 10:00N 37°57' W 008°53'0 0.0
2017-Oct-07 09:30N 37°57' W 008°53'0 0.0
2017-Oct-07 09:00N 37°57' W 008°53'0 0.0
2017-Oct-07 08:30N 37°57' W 008°53'0 0.0
2017-Oct-07 08:00N 37°57' W 008°53'0 0.0
2017-Oct-07 07:30N 37°57' W 008°53'0 0.0
2017-Oct-07 07:00N 37°57' W 008°53'0 0.0
2017-Oct-07 06:30N 37°57' W 008°53'0 0.0
2017-Oct-07 06:00N 37°57' W 008°53'0 0.0
2017-Oct-07 05:30N 37°57' W 008°53'0 0.0
2017-Oct-07 05:00N 37°57' W 008°53'0 0.0
2017-Oct-07 04:30N 37°57' W 008°53'0 0.0
2017-Oct-07 04:00N 37°57' W 008°53'0 0.0
2017-Oct-07 03:30N 37°57' W 008°53'0 0.0
2017-Oct-07 03:00N 37°57' W 008°53'0 0.0
2017-Oct-07 02:30N 37°57' W 008°53'0 0.0
2017-Oct-07 02:00N 37°57' W 008°53'0 0.0
2017-Oct-07 01:30N 37°57' W 008°53'0 0.0
2017-Oct-07 01:00N 37°57' W 008°53'0 0.0
2017-Oct-07 00:30N 37°57' W 008°53'0 0.0
2017-Oct-07 00:00N 37°57' W 008°53'0 0.0
2017-Oct-06 23:30N 37°57' W 008°53'0 0.0
2017-Oct-06 23:00N 37°57' W 008°53'0 0.0
2017-Oct-06 22:30N 37°57' W 008°53'0 0.0
2017-Oct-06 22:00N 37°57' W 008°53'0 0.0
2017-Oct-06 21:30N 37°57' W 008°53'  

Dump ship's entire track history